createdAt,value
2023-01-12T00:01:59.329Z,11.50
2023-01-12T00:04:46.356Z,16.60
2023-01-12T00:07:33.801Z,13.22
2023-01-12T00:10:21.179Z,14.00
2023-01-12T00:13:08.293Z,14.35
2023-01-12T00:16:18.370Z,15.30
2023-01-12T00:19:11.657Z,9.68
2023-01-12T00:22:13.851Z,14.45
2023-01-12T00:25:01.262Z,16.05
2023-01-12T00:27:50.245Z,13.38
2023-01-12T00:30:37.717Z,18.00
2023-01-12T00:33:25.339Z,13.85
2023-01-12T00:36:14.529Z,22.37
2023-01-12T00:39:01.853Z,15.38
2023-01-12T00:42:06.922Z,13.53
2023-01-12T00:45:12.427Z,12.30
2023-01-12T00:47:59.923Z,7.92
2023-01-12T00:50:47.132Z,10.75
2023-01-12T00:53:36.260Z,12.65
2023-01-12T00:56:23.661Z,8.50
2023-01-12T00:59:11.157Z,13.85
2023-01-12T01:01:58.938Z,9.38
2023-01-12T01:04:46.248Z,10.68
2023-01-12T01:07:36.956Z,15.70
2023-01-12T01:10:24.153Z,15.93
2023-01-12T01:13:13.365Z,15.72
2023-01-12T01:16:09.179Z,13.83
2023-01-12T01:18:57.212Z,14.07
2023-01-12T01:21:44.432Z,10.38
2023-01-12T01:24:31.908Z,9.10
2023-01-12T01:27:19.229Z,14.83
2023-01-12T01:30:08.564Z,17.25
2023-01-12T01:32:55.845Z,19.52
2023-01-12T01:35:42.998Z,13.75
2023-01-12T01:38:31.104Z,21.55
2023-01-12T01:41:21.435Z,12.75
2023-01-12T01:44:31.698Z,19.42
2023-01-12T01:47:21.966Z,17.90
2023-01-12T01:50:15.070Z,9.93
2023-01-12T01:53:14.902Z,20.15
2023-01-12T01:56:06.766Z,13.18
2023-01-12T01:58:57.245Z,15.00
2023-01-12T02:01:44.583Z,19.65
2023-01-12T02:04:32.542Z,11.70
2023-01-12T02:07:19.978Z,13.65
2023-01-12T02:10:11.808Z,16.62
2023-01-12T02:13:17.410Z,13.28
2023-01-12T02:16:23.324Z,14.25
2023-01-12T02:19:28.587Z,15.23
2023-01-12T02:22:18.881Z,16.55
2023-01-12T02:25:42.851Z,10.85
2023-01-12T02:28:39.335Z,15.25
2023-01-12T02:31:56.780Z,14.38
2023-01-12T02:34:46.981Z,14.70
2023-01-12T02:37:37.440Z,16.10
2023-01-12T02:40:39.609Z,15.88
2023-01-12T02:43:32.030Z,14.38
2023-01-12T02:46:28.255Z,11.75
2023-01-12T02:49:18.708Z,12.15
2023-01-12T02:52:09.007Z,16.12
2023-01-12T02:54:58.274Z,14.58
2023-01-12T02:57:47.116Z,13.75
2023-01-12T03:00:38.201Z,14.30
2023-01-12T03:03:27.212Z,14.18
2023-01-12T03:06:18.311Z,10.43
2023-01-12T03:09:08.555Z,19.42
2023-01-12T03:11:59.164Z,11.88
2023-01-12T03:14:49.700Z,15.32
2023-01-12T03:17:43.091Z,13.13
2023-01-12T03:20:33.422Z,8.65
2023-01-12T03:23:24.193Z,9.70
2023-01-12T03:26:13.892Z,10.63
2023-01-12T03:29:10.110Z,14.38
2023-01-12T03:31:57.770Z,10.85
2023-01-12T03:34:46.168Z,15.03
2023-01-12T03:37:42.296Z,12.50
2023-01-12T03:40:38.784Z,13.93
2023-01-12T03:43:32.059Z,12.82
2023-01-12T03:46:31.731Z,12.07
2023-01-12T03:49:22.090Z,18.32
2023-01-12T03:52:11.396Z,9.63
2023-01-12T03:55:00.797Z,17.57
2023-01-12T03:57:49.085Z,14.20
2023-01-12T04:00:38.616Z,13.90
2023-01-12T04:03:26.674Z,13.15
2023-01-12T04:06:13.744Z,16.15
2023-01-12T04:09:00.878Z,12.88
2023-01-12T04:12:06.253Z,16.77
2023-01-12T04:14:53.900Z,8.75
2023-01-12T04:17:41.153Z,7.90
2023-01-12T04:20:28.325Z,10.30
2023-01-12T04:23:15.641Z,14.53
2023-01-12T04:26:03.198Z,12.35
2023-01-12T04:28:50.559Z,12.68
2023-01-12T04:31:39.782Z,9.03
2023-01-12T04:34:27.114Z,15.03
2023-01-12T04:37:14.668Z,12.05
2023-01-12T04:40:02.396Z,9.33
2023-01-12T04:43:11.453Z,14.40
2023-01-12T04:45:58.554Z,14.70
2023-01-12T04:48:45.749Z,18.45
2023-01-12T04:51:32.974Z,11.70
2023-01-12T04:54:20.472Z,15.28
2023-01-12T04:57:07.933Z,16.60
2023-01-12T04:59:56.919Z,10.95
2023-01-12T05:02:44.130Z,10.45
2023-01-12T05:05:33.107Z,10.48
2023-01-12T05:08:38.638Z,8.93
2023-01-12T05:11:29.625Z,8.25
2023-01-12T05:14:16.985Z,10.88
2023-01-12T05:17:05.600Z,8.95
2023-01-12T05:19:52.839Z,11.00
2023-01-12T05:22:46.284Z,7.70
2023-01-12T05:25:33.540Z,13.62
2023-01-12T05:28:21.160Z,11.80
2023-01-12T05:31:11.777Z,12.95
2023-01-12T05:34:09.495Z,11.10
2023-01-12T05:36:56.948Z,13.13
2023-01-12T05:39:44.572Z,10.10
2023-01-12T05:42:49.656Z,16.05
2023-01-12T05:45:40.000Z,11.70
2023-01-12T05:48:27.271Z,10.05
2023-01-12T05:51:15.149Z,7.17
2023-01-12T05:54:06.239Z,10.53
2023-01-12T05:56:55.308Z,9.93
2023-01-12T05:59:42.597Z,8.13
2023-01-12T06:02:30.324Z,13.48
2023-01-12T06:05:17.498Z,8.28
2023-01-12T06:08:05.982Z,10.32
2023-01-12T06:10:53.390Z,11.93
2023-01-12T06:13:59.186Z,8.78
2023-01-12T06:16:46.529Z,7.53
2023-01-12T06:19:33.867Z,13.40
2023-01-12T06:22:21.247Z,11.83
2023-01-12T06:25:09.130Z,15.93
2023-01-12T06:27:57.062Z,12.05
2023-01-12T06:30:44.619Z,8.35
2023-01-12T06:33:32.860Z,10.00
2023-01-12T06:36:20.056Z,15.25
2023-01-12T06:39:07.384Z,10.08
2023-01-12T06:42:12.775Z,8.98
2023-01-12T06:45:03.745Z,9.15
2023-01-12T06:47:51.970Z,12.47
2023-01-12T06:50:39.758Z,9.13
2023-01-12T06:53:27.316Z,10.32
2023-01-12T06:56:14.512Z,10.13
2023-01-12T06:59:01.994Z,10.48
2023-01-12T07:01:49.667Z,7.67
2023-01-12T07:04:36.943Z,8.20
2023-01-12T07:07:24.213Z,10.00
2023-01-12T07:10:12.817Z,9.23
2023-01-12T07:13:03.411Z,8.75
2023-01-12T07:15:51.072Z,15.93
2023-01-12T07:18:38.352Z,12.23
2023-01-12T07:21:25.959Z,8.78
2023-01-12T07:24:13.562Z,12.85
2023-01-12T07:27:01.258Z,9.75
2023-01-12T07:29:48.746Z,11.63
2023-01-12T07:32:35.820Z,13.70
2023-01-12T07:35:25.129Z,13.75
2023-01-12T07:38:13.020Z,17.70
2023-01-12T07:41:02.435Z,12.33
2023-01-12T07:43:49.648Z,10.35
2023-01-12T07:46:37.387Z,14.30
2023-01-12T07:49:24.771Z,11.73
2023-01-12T07:52:13.369Z,20.62
2023-01-12T07:55:00.632Z,8.50
2023-01-12T07:58:00.934Z,12.63
2023-01-12T08:00:48.471Z,8.33
2023-01-12T08:03:36.256Z,7.17
2023-01-12T08:06:23.644Z,7.60
2023-01-12T08:09:11.033Z,14.60
2023-01-12T08:11:58.197Z,9.70
2023-01-12T08:14:45.696Z,15.93
2023-01-12T08:17:36.391Z,12.50
2023-01-12T08:20:26.659Z,7.75
2023-01-12T08:23:19.891Z,10.35
2023-01-12T08:26:10.176Z,10.63
2023-01-12T08:29:03.984Z,8.03
2023-01-12T08:31:51.148Z,7.10
2023-01-12T08:34:41.276Z,11.70
2023-01-12T08:37:29.552Z,6.55
2023-01-12T08:40:17.008Z,6.83
2023-01-12T08:43:04.367Z,7.55
2023-01-12T08:45:51.796Z,4.83
2023-01-12T08:48:39.901Z,7.90
2023-01-12T08:51:28.753Z,7.80
2023-01-12T08:54:17.355Z,7.15
2023-01-12T08:57:05.801Z,7.28
2023-01-12T08:59:53.673Z,7.42
2023-01-12T09:02:41.010Z,4.58
2023-01-12T09:05:28.248Z,4.58
2023-01-12T09:08:15.795Z,4.50
2023-01-12T09:11:07.228Z,4.22
2023-01-12T09:13:56.110Z,6.87
2023-01-12T09:16:43.765Z,5.12
2023-01-12T09:19:31.114Z,5.85
2023-01-12T09:22:18.491Z,3.85
2023-01-12T09:25:06.219Z,3.15
2023-01-12T09:27:54.002Z,4.50
2023-01-12T09:30:41.005Z,3.77
2023-01-12T09:33:28.361Z,3.50
2023-01-12T09:36:19.070Z,4.30
2023-01-12T09:39:10.402Z,2.45
2023-01-12T09:42:16.461Z,4.78
2023-01-12T09:45:24.274Z,0.82
2023-01-12T09:48:14.314Z,3.45
2023-01-12T09:51:07.561Z,1.87
2023-01-12T09:53:54.855Z,2.25
2023-01-12T09:56:46.709Z,4.83
2023-01-12T09:59:42.855Z,2.77
2023-01-12T10:02:33.620Z,2.22
2023-01-12T10:05:49.046Z,2.27
2023-01-12T10:08:55.709Z,2.22
2023-01-12T10:12:07.172Z,2.42
2023-01-12T10:15:03.682Z,4.65
2023-01-12T10:17:59.736Z,3.02
2023-01-12T10:20:47.242Z,2.65
2023-01-12T10:23:35.433Z,3.45
2023-01-12T10:26:25.331Z,4.70
2023-01-12T10:29:13.450Z,4.83
2023-01-12T10:32:00.729Z,2.02
2023-01-12T10:34:52.921Z,2.80
2023-01-12T10:37:54.082Z,3.80
2023-01-12T10:40:41.301Z,4.87
2023-01-12T10:43:30.115Z,4.25
2023-01-12T10:46:19.308Z,2.55
2023-01-12T10:49:24.565Z,4.72
2023-01-12T10:52:14.833Z,4.15
2023-01-12T10:55:02.107Z,5.97
2023-01-12T10:57:50.771Z,3.55
2023-01-12T11:00:38.368Z,4.28
2023-01-12T11:03:34.828Z,4.25
2023-01-12T11:06:31.554Z,6.67
2023-01-12T11:09:31.827Z,7.12
2023-01-12T11:12:25.356Z,9.05
2023-01-12T11:15:16.757Z,3.20
2023-01-12T11:18:26.743Z,3.25
2023-01-12T11:21:17.646Z,6.10
2023-01-12T11:24:17.241Z,4.17
2023-01-12T11:27:09.386Z,2.42
2023-01-12T11:30:10.195Z,3.15
2023-01-12T11:33:05.219Z,4.87
2023-01-12T11:35:55.420Z,1.77
2023-01-12T11:38:49.052Z,2.67
2023-01-12T11:41:46.812Z,6.25
2023-01-12T11:44:36.955Z,3.15
2023-01-12T11:47:27.219Z,1.82
2023-01-12T11:50:20.559Z,3.70
2023-01-12T11:53:11.054Z,5.17
2023-01-12T11:56:25.834Z,26.27
2023-01-12T11:59:35.766Z,4.22
2023-01-12T12:02:38.099Z,3.62
2023-01-12T12:05:31.388Z,2.15
2023-01-12T12:08:34.197Z,3.42
2023-01-12T12:11:33.547Z,7.10
2023-01-12T12:14:29.967Z,4.42
2023-01-12T12:17:23.375Z,6.72
2023-01-12T12:20:13.525Z,2.60
2023-01-12T12:23:21.851Z,3.58
2023-01-12T12:26:12.439Z,7.60
2023-01-12T12:29:22.129Z,7.37
2023-01-12T12:32:46.134Z,3.95
2023-01-12T12:35:42.693Z,1.07
2023-01-12T12:38:39.307Z,2.83
2023-01-12T12:41:59.217Z,3.07
2023-01-12T12:45:17.584Z,3.00
2023-01-12T12:48:14.401Z,2.65
2023-01-12T12:51:07.736Z,1.82
2023-01-12T12:53:56.434Z,3.08
2023-01-12T12:56:44.329Z,1.47
2023-01-12T12:59:40.555Z,3.35
2023-01-12T13:02:42.727Z,5.45
2023-01-12T13:05:50.869Z,1.55
2023-01-12T13:08:39.547Z,1.10
2023-01-12T13:12:02.114Z,0.60
2023-01-12T13:15:21.758Z,1.17
2023-01-12T13:18:12.663Z,1.07
2023-01-12T13:20:59.875Z,3.55
2023-01-12T13:23:50.530Z,1.47
2023-01-12T13:26:41.192Z,1.65
2023-01-12T13:29:31.622Z,2.75
2023-01-12T13:32:30.760Z,1.02
2023-01-12T13:35:33.512Z,1.55
2023-01-12T13:38:23.716Z,2.10
2023-01-12T13:41:46.880Z,1.20
2023-01-12T13:44:37.341Z,2.17
2023-01-12T13:47:27.604Z,4.05
2023-01-12T13:50:18.086Z,3.30
2023-01-12T13:53:05.811Z,2.85
2023-01-12T13:56:04.984Z,2.08
2023-01-12T13:58:54.284Z,4.05
2023-01-12T14:01:42.406Z,3.15
2023-01-12T14:04:50.966Z,3.58
2023-01-12T14:08:13.163Z,3.90
2023-01-12T14:11:18.482Z,4.62
2023-01-12T14:15:02.160Z,6.28
2023-01-12T14:17:49.795Z,1.45
2023-01-12T14:20:45.869Z,3.47
2023-01-12T14:23:34.281Z,3.05
2023-01-12T14:26:26.238Z,2.70
2023-01-12T14:29:13.852Z,0.82
2023-01-12T14:32:01.073Z,3.83
2023-01-12T14:34:52.903Z,1.20
2023-01-12T14:37:40.294Z,1.55
2023-01-12T14:40:30.479Z,1.70
2023-01-12T14:43:36.409Z,1.57
2023-01-12T14:46:30.226Z,1.62
2023-01-12T14:49:23.589Z,0.72
2023-01-12T14:52:32.967Z,1.00
2023-01-12T14:55:30.019Z,3.05
2023-01-12T14:58:22.248Z,0.88
2023-01-12T15:01:11.134Z,1.62
2023-01-12T15:03:58.457Z,2.27
2023-01-12T15:06:46.406Z,3.20
2023-01-12T15:09:37.342Z,2.47
2023-01-12T15:12:34.311Z,1.77
2023-01-12T15:15:34.537Z,1.20
2023-01-12T15:18:39.199Z,1.62
2023-01-12T15:21:45.361Z,1.45
2023-01-12T15:24:53.659Z,2.60
2023-01-12T15:27:40.575Z,2.05
2023-01-12T15:30:27.926Z,2.12
2023-01-12T15:33:16.279Z,5.17
2023-01-12T15:36:03.740Z,1.45
2023-01-12T15:38:51.280Z,2.35
2023-01-12T15:41:49.310Z,0.62
2023-01-12T15:44:38.121Z,2.70
2023-01-12T15:47:25.368Z,1.35
2023-01-12T15:50:13.773Z,0.72
2023-01-12T15:53:04.202Z,3.00
2023-01-12T15:55:52.773Z,1.27
2023-01-12T15:58:40.256Z,1.85
2023-01-12T16:01:30.899Z,0.88
2023-01-12T16:07:18.952Z,1.92
2023-01-12T16:10:06.041Z,2.05
2023-01-12T16:12:55.145Z,3.50
2023-01-12T16:15:45.186Z,1.05
2023-01-12T16:18:32.512Z,0.68
2023-01-12T16:21:22.980Z,0.45
2023-01-12T16:24:10.655Z,0.70
2023-01-12T16:26:57.962Z,0.68
2023-01-12T16:29:45.261Z,0.82
2023-01-12T16:32:34.176Z,2.50
2023-01-12T16:35:21.640Z,1.37
2023-01-12T16:38:08.617Z,1.85
2023-01-12T16:40:57.440Z,1.98
2023-01-12T16:43:44.546Z,2.30
2023-01-12T16:46:35.540Z,1.40
2023-01-12T16:49:24.057Z,1.75
2023-01-12T16:52:14.668Z,1.82
2023-01-12T16:55:11.603Z,1.22
2023-01-12T16:57:58.943Z,1.82
2023-01-12T17:00:48.524Z,1.12
2023-01-12T17:03:36.201Z,1.70
2023-01-12T17:06:24.941Z,1.37
2023-01-12T17:09:12.452Z,2.52
2023-01-12T17:12:00.360Z,1.95
2023-01-12T17:14:49.024Z,3.70
2023-01-12T17:17:39.676Z,1.02
2023-01-12T17:20:27.257Z,1.12
2023-01-12T17:23:17.427Z,2.87
2023-01-12T17:26:32.559Z,2.33
2023-01-12T17:29:27.763Z,3.58
2023-01-12T17:32:19.381Z,1.40
2023-01-12T17:35:13.771Z,1.07
2023-01-12T17:38:10.499Z,0.98
2023-01-12T17:41:04.569Z,1.27
2023-01-12T17:43:56.019Z,3.35
2023-01-12T17:46:44.769Z,1.98
2023-01-12T17:49:32.704Z,2.72
2023-01-12T17:52:20.433Z,3.30
2023-01-12T17:55:09.907Z,1.82
2023-01-12T17:58:01.592Z,1.62
2023-01-12T18:00:51.838Z,1.00
2023-01-12T18:03:39.646Z,2.60
2023-01-12T18:06:37.341Z,3.08
2023-01-12T18:09:29.372Z,1.25
2023-01-12T18:12:20.024Z,1.30
2023-01-12T18:15:15.028Z,2.37
2023-01-12T18:18:02.326Z,3.92
2023-01-12T18:20:52.826Z,1.75
2023-01-12T18:23:46.846Z,3.17
2023-01-12T18:26:38.110Z,1.60
2023-01-12T18:29:25.725Z,2.08
2023-01-12T18:32:13.220Z,1.32
2023-01-12T18:35:03.227Z,3.37
2023-01-12T18:37:52.925Z,2.77
2023-01-12T18:40:44.343Z,4.08
2023-01-12T18:43:31.696Z,1.37
2023-01-12T18:46:29.818Z,2.15
2023-01-12T18:49:22.400Z,3.17
2023-01-12T18:52:30.959Z,2.60
2023-01-12T18:55:20.836Z,4.30
2023-01-12T18:58:08.066Z,2.33
2023-01-12T19:01:02.620Z,4.97
2023-01-12T19:03:51.211Z,3.45
2023-01-12T19:06:43.731Z,2.85
2023-01-12T19:09:37.970Z,3.40
2023-01-12T19:12:25.359Z,1.42
2023-01-12T19:15:40.708Z,1.82
2023-01-12T19:18:28.350Z,3.22
2023-01-12T19:21:33.813Z,1.77
2023-01-12T19:24:40.052Z,3.75
2023-01-12T19:27:45.557Z,2.17
2023-01-12T19:30:37.558Z,1.72
2023-01-12T19:33:24.893Z,3.27
2023-01-12T19:36:16.280Z,3.52
2023-01-12T19:39:08.346Z,2.72
2023-01-12T19:42:13.703Z,2.00
2023-01-12T19:45:14.346Z,2.77
2023-01-12T19:48:03.678Z,2.22
2023-01-12T19:50:51.271Z,2.17
2023-01-12T19:53:40.583Z,2.27
2023-01-12T19:56:28.002Z,2.20
2023-01-12T19:59:15.464Z,4.28
2023-01-12T20:02:03.817Z,3.77
2023-01-12T20:04:51.216Z,2.60
2023-01-12T20:07:38.940Z,1.07
2023-01-12T20:10:26.234Z,2.58
2023-01-12T20:13:14.519Z,1.70
2023-01-12T20:16:07.802Z,0.85
2023-01-12T20:18:59.578Z,2.15
2023-01-12T20:21:47.814Z,2.65
2023-01-12T20:24:35.454Z,1.35
2023-01-12T20:27:22.996Z,1.67
2023-01-12T20:30:11.581Z,1.98
2023-01-12T20:33:00.707Z,1.65
2023-01-12T20:35:49.907Z,1.72
2023-01-12T20:38:41.041Z,0.98
2023-01-12T20:41:30.315Z,1.72
2023-01-12T20:44:23.993Z,3.33
2023-01-12T20:47:11.251Z,1.27
2023-01-12T20:49:58.816Z,1.92
2023-01-12T20:52:52.257Z,1.72
2023-01-12T20:55:48.987Z,2.30
2023-01-12T20:58:38.207Z,2.50
2023-01-12T21:01:26.186Z,1.30
2023-01-12T21:04:13.622Z,1.37
2023-01-12T21:07:01.036Z,1.72
2023-01-12T21:09:51.874Z,5.08
2023-01-12T21:12:39.081Z,2.90
2023-01-12T21:15:26.599Z,4.97
2023-01-12T21:18:14.335Z,8.05
2023-01-12T21:21:02.249Z,3.62
2023-01-12T21:23:49.756Z,3.00
2023-01-12T21:26:40.352Z,3.45
2023-01-12T21:29:28.137Z,2.75
2023-01-12T21:32:15.795Z,1.52
2023-01-12T21:35:03.232Z,7.72
2023-01-12T21:37:53.823Z,3.50
2023-01-12T21:40:41.128Z,5.05
2023-01-12T21:43:28.629Z,3.27
2023-01-12T21:46:16.215Z,8.68
2023-01-12T21:49:16.435Z,3.22
2023-01-12T21:52:18.392Z,1.52
2023-01-12T21:58:45.475Z,1.72
2023-01-12T22:04:20.362Z,2.22
2023-01-12T22:07:07.656Z,3.42
2023-01-12T22:09:56.644Z,2.42
2023-01-12T22:12:44.835Z,4.00
2023-01-12T22:15:32.399Z,3.10
2023-01-12T22:18:20.701Z,2.87
2023-01-12T22:21:09.905Z,3.98
2023-01-12T22:23:57.187Z,4.45
2023-01-12T22:26:44.670Z,2.22
2023-01-12T22:29:32.585Z,6.45
2023-01-12T22:32:20.071Z,3.40
2023-01-12T22:35:07.842Z,3.98
2023-01-12T22:37:55.710Z,4.30
2023-01-12T22:40:42.983Z,3.35
2023-01-12T22:43:30.447Z,3.05
2023-01-12T22:46:21.102Z,4.42
2023-01-12T22:49:09.298Z,3.40
2023-01-12T22:51:56.615Z,5.78
2023-01-12T22:54:44.220Z,2.15
2023-01-12T22:57:31.953Z,3.37
2023-01-12T23:00:20.772Z,2.45
2023-01-12T23:03:14.387Z,1.55
2023-01-12T23:06:01.689Z,1.15
2023-01-12T23:08:50.367Z,2.22
2023-01-12T23:11:37.625Z,5.70
2023-01-12T23:14:24.724Z,2.62
2023-01-12T23:17:15.093Z,2.12
2023-01-12T23:20:02.146Z,2.58
2023-01-12T23:22:49.821Z,2.62
2023-01-12T23:25:37.900Z,1.05
2023-01-12T23:28:25.343Z,2.95
2023-01-12T23:31:16.049Z,2.50
2023-01-12T23:34:03.489Z,1.95
2023-01-12T23:36:51.066Z,0.75
2023-01-12T23:39:38.429Z,2.02
2023-01-12T23:42:25.875Z,3.50
2023-01-12T23:45:13.607Z,1.27
2023-01-12T23:48:01.302Z,2.87
2023-01-12T23:50:48.563Z,1.85
2023-01-12T23:53:36.272Z,3.72
2023-01-12T23:56:23.711Z,3.90
2023-01-12T23:59:11.005Z,2.30
